Redstone Army Air Field
KHUA : now visible

Airfield :











YOU CAN JOIN US ON...

 
LOGIN :

Register | Disclaimer

   EN    FR    IT 

 









Legend :    VFR   Marginal VFR   IFR   Intensive IFR   Very Intensive IFR
Visi :
Ceiling :
>= 8 km
>= 3000ft
5 to 8 km
1000 to 3000 ft
1500m to 5 km
500 to 1000 ft
800 to 1500m
200 to 500 ft
< 800m
< 200 ft
Symbols :   Thunderstorms  Fog  Heavy snow  Heavy precipitations  Wind > 20 kt






- Airport Elevation : 684 ft


KHUA - Redstone Army Air Field

CURRENT METAR :
  • 060258Z AUTO 05003KT 9SM CLR 17/11 A3004 RMK AO2 RAE21RAB23E40DZB40E42 SLP170 P0000 60000 52017

EXPIRED METARs :
  • 060243Z AUTO 00000KT 9SM CLR 17/11 A3004 RMK AO2 RAE21RAB23E40DZB40E42 SLP170
  • 060238Z AUTO 00000KT 1/4SM R17/5000FT -RA CLR 17/11 A3004 RMK AO2 RAE21RAB23 SLP170
  • 060213Z AUTO 00000KT 1SM R17/P6000FT -RA CLR 18/11 A3003 RMK AO2 VIS 7/8V4 SLP167
  • 060203Z AUTO 00000KT 2 3/4SM -RA CLR 18/10 A3003 RMK AO2 VIS 1/2V3 SLP167
  • 060143Z AUTO 00000KT 1/4SM R17/2800FT -RA CLR 19/10 A3003 RMK AO2 VIS 1/4V9 RAB36 SLP167
  • 060058Z AUTO 00000KT 9SM CLR 21/10 A3001 RMK AO2 SLP160 T02070099
  • 052358Z AUTO 35004KT 10SM CLR 23/10 A2999 RMK AO2 SLP153 T02310099 10265 20231 53001

TAF N/A



MET'MAP, your aeronautical weather chart ! - Copyright ORBIFLY December 2007 - Disclaimer

ORBIFLY MET'MAP TEAM :

Programming & Development : Alexandra Zaïnal
Concept & original design : Baudouin d'Aumeries
Assistance for programming : Marc-Olivier Méhu
Technical & hardware support : Manuel Goepfert

Contact : metmap@orbifly.com




SOURCES & CREDITS :

   NOAA       Earth
Advisory